createdAt,value
2019-01-03T00:02:49.080Z,-1.00
2019-01-03T00:05:46.428Z,-1.10
2019-01-03T00:08:40.591Z,-1.10
2019-01-03T00:11:27.573Z,-1.10
2019-01-03T00:14:15.756Z,-1.10
2019-01-03T00:17:02.471Z,-1.10
2019-01-03T00:20:00.832Z,-1.10
2019-01-03T00:22:54.787Z,-1.10
2019-01-03T00:25:55.118Z,-1.20
2019-01-03T00:28:49.364Z,-1.20
2019-01-03T00:31:36.361Z,-1.20
2019-01-03T00:34:23.241Z,-1.30
2019-01-03T00:37:17.822Z,-1.30
2019-01-03T00:39:58.876Z,-1.30
2019-01-03T00:42:49.784Z,-1.30
2019-01-03T00:45:43.896Z,-1.30
2019-01-03T00:48:44.261Z,-1.40
2019-01-03T00:51:32.402Z,-1.40
2019-01-03T00:54:20.678Z,-1.40
2019-01-03T00:57:08.828Z,-1.40
2019-01-03T00:59:56.964Z,-1.40
2019-01-03T01:03:03.343Z,-1.40
2019-01-03T01:06:04.080Z,-1.40
2019-01-03T01:08:52.223Z,-1.50
2019-01-03T01:11:49.196Z,-1.50
2019-01-03T01:14:30.998Z,-1.50
2019-01-03T01:17:17.806Z,-1.50
2019-01-03T01:20:04.812Z,-1.50
2019-01-03T01:22:51.606Z,-1.50
2019-01-03T01:25:45.980Z,-1.50
2019-01-03T01:28:35.966Z,-1.50
2019-01-03T01:31:24.119Z,-1.50
2019-01-03T01:34:11.087Z,-1.50
2019-01-03T01:36:51.054Z,-1.50
2019-01-03T01:39:37.762Z,-1.50
2019-01-03T01:42:24.716Z,-1.50
2019-01-03T01:45:11.886Z,-1.50
2019-01-03T01:48:09.311Z,-1.50
2019-01-03T01:50:56.247Z,-1.50
2019-01-03T01:53:44.379Z,-1.60
2019-01-03T01:56:39.323Z,-1.60
2019-01-03T01:59:25.987Z,-1.50
2019-01-03T02:02:13.104Z,-1.50
2019-01-03T02:05:07.531Z,-1.50
2019-01-03T02:07:58.770Z,-1.50
2019-01-03T02:10:45.664Z,-1.50
2019-01-03T02:13:46.109Z,-1.50
2019-01-03T02:16:32.886Z,-1.50
2019-01-03T02:19:36.383Z,-1.50
2019-01-03T02:22:27.703Z,-1.50
2019-01-03T02:25:16.222Z,-1.50
2019-01-03T02:27:56.079Z,-1.50
2019-01-03T02:30:44.621Z,-1.50
2019-01-03T02:33:30.722Z,-1.50
2019-01-03T02:36:37.194Z,-1.50
2019-01-03T02:39:26.276Z,-1.50
2019-01-03T02:42:26.488Z,-1.50
2019-01-03T02:45:28.429Z,-1.40
2019-01-03T02:48:25.831Z,-1.40
2019-01-03T02:51:32.358Z,-1.40
2019-01-03T02:54:19.323Z,-1.40
2019-01-03T02:57:22.751Z,-1.40
2019-01-03T03:00:09.895Z,-1.40
2019-01-03T03:03:10.342Z,-1.40
2019-01-03T03:06:16.697Z,-1.50
2019-01-03T03:09:07.743Z,-1.50
2019-01-03T03:12:03.690Z,-1.60
2019-01-03T03:15:03.703Z,-1.60
2019-01-03T03:18:03.929Z,-1.70
2019-01-03T03:20:50.826Z,-1.80
2019-01-03T03:23:42.237Z,-1.80
2019-01-03T03:26:37.010Z,-1.80
2019-01-03T03:29:40.248Z,-1.80
2019-01-03T03:32:43.710Z,-1.70
2019-01-03T03:35:44.070Z,-1.60
2019-01-03T03:38:30.883Z,-1.60
2019-01-03T03:41:32.636Z,-1.60
2019-01-03T03:44:29.912Z,-1.60
2019-01-03T03:47:24.061Z,-1.70
2019-01-03T03:50:10.895Z,-1.70
2019-01-03T03:53:04.202Z,-1.70
2019-01-03T03:55:52.319Z,-1.80
2019-01-03T03:58:52.430Z,-1.70
2019-01-03T04:01:39.963Z,-1.70
2019-01-03T04:04:31.125Z,-1.80
2019-01-03T04:07:28.911Z,-1.80
2019-01-03T04:10:26.029Z,-1.80
2019-01-03T04:13:14.113Z,-1.80
2019-01-03T04:16:20.335Z,-1.80
2019-01-03T04:19:07.303Z,-1.80
2019-01-03T04:21:54.068Z,-1.80
2019-01-03T04:24:39.649Z,-1.80
2019-01-03T04:27:27.691Z,-1.90
2019-01-03T04:30:15.225Z,-1.90
2019-01-03T04:33:06.031Z,-1.90
2019-01-03T04:35:49.829Z,-1.90
2019-01-03T04:38:30.703Z,-1.90
2019-01-03T04:41:21.665Z,-1.90
2019-01-03T04:44:08.787Z,-1.80
2019-01-03T04:47:06.180Z,-1.80
2019-01-03T04:49:50.297Z,-1.80
2019-01-03T04:52:47.707Z,-1.80
2019-01-03T04:55:34.863Z,-1.80
2019-01-03T04:58:32.204Z,-1.80
2019-01-03T05:01:55.231Z,-1.80
2019-01-03T05:05:01.730Z,-1.80
2019-01-03T05:07:57.425Z,-1.80
2019-01-03T05:10:48.433Z,-1.90
2019-01-03T05:13:35.380Z,-1.80
2019-01-03T05:16:22.585Z,-1.80
2019-01-03T05:19:22.999Z,-1.80
2019-01-03T05:22:11.139Z,-1.80
2019-01-03T05:24:58.363Z,-1.80
2019-01-03T05:27:45.495Z,-1.80
2019-01-03T05:30:32.542Z,-1.70
2019-01-03T05:33:19.821Z,-1.70
2019-01-03T05:36:06.557Z,-1.60
2019-01-03T05:38:52.707Z,-1.60
2019-01-03T05:41:50.963Z,-1.50
2019-01-03T05:44:43.549Z,-1.50
2019-01-03T05:47:30.381Z,-1.50
2019-01-03T05:50:30.745Z,-1.50
2019-01-03T05:53:25.506Z,-1.60
2019-01-03T05:56:12.669Z,-1.60
2019-01-03T05:58:55.247Z,-1.70
2019-01-03T06:01:43.388Z,-1.70
2019-01-03T06:04:29.133Z,-1.80
2019-01-03T06:07:26.153Z,-1.70
2019-01-03T06:10:20.209Z,-1.70
2019-01-03T06:13:11.530Z,-1.60
2019-01-03T06:16:02.427Z,-1.50
2019-01-03T06:18:50.554Z,-1.40
2019-01-03T06:21:38.692Z,-1.30
2019-01-03T06:24:29.600Z,-1.20
2019-01-03T06:27:16.441Z,-1.10
2019-01-03T06:30:13.887Z,-1.00
2019-01-03T06:33:05.291Z,-1.00
2019-01-03T06:35:57.342Z,-1.00
2019-01-03T06:38:44.170Z,-0.90
2019-01-03T06:41:31.421Z,-0.90
2019-01-03T06:44:19.561Z,-0.80
2019-01-03T06:47:10.745Z,-0.80
2019-01-03T06:50:09.055Z,-0.80
2019-01-03T06:53:12.303Z,-0.80
2019-01-03T06:55:58.882Z,-0.80
2019-01-03T06:58:45.647Z,-0.80
2019-01-03T07:01:41.833Z,-0.70
2019-01-03T07:04:31.719Z,-0.70
2019-01-03T07:07:32.003Z,-0.80
2019-01-03T07:10:20.147Z,-0.70
2019-01-03T07:13:20.131Z,-0.70
2019-01-03T07:16:06.401Z,-0.70
2019-01-03T07:18:53.370Z,-0.70
2019-01-03T07:21:33.981Z,-0.60
2019-01-03T07:24:20.854Z,-0.50
2019-01-03T07:27:07.936Z,-0.40
2019-01-03T07:30:05.346Z,-0.40
2019-01-03T07:32:52.205Z,-0.40
2019-01-03T07:35:49.530Z,-0.30
2019-01-03T07:38:36.492Z,-0.30
2019-01-03T07:41:23.560Z,-0.20
2019-01-03T07:44:11.689Z,-0.20
2019-01-03T07:47:06.492Z,-0.20
2019-01-03T07:49:49.335Z,-0.20
2019-01-03T07:52:55.742Z,-0.10
2019-01-03T07:56:02.381Z,-0.10
2019-01-03T07:59:05.830Z,-0.10
2019-01-03T08:01:53.964Z,0.00
2019-01-03T08:04:51.494Z,0.00
2019-01-03T08:07:58.149Z,0.10
2019-01-03T08:10:49.055Z,0.10
2019-01-03T08:13:39.992Z,0.10
2019-01-03T08:16:40.443Z,0.10
2019-01-03T08:19:34.364Z,0.20
2019-01-03T08:22:21.410Z,0.20
2019-01-03T08:25:04.154Z,0.30
2019-01-03T08:27:52.290Z,0.30
2019-01-03T08:30:35.442Z,0.30
2019-01-03T08:33:22.518Z,0.40
2019-01-03T08:36:09.739Z,0.40
2019-01-03T08:39:04.172Z,0.40
2019-01-03T08:41:51.232Z,0.50
2019-01-03T08:44:40.784Z,0.50
2019-01-03T08:47:31.731Z,0.50
2019-01-03T08:50:35.076Z,0.60
2019-01-03T08:53:35.426Z,0.60
2019-01-03T08:56:23.698Z,0.70
2019-01-03T08:59:12.083Z,0.70
2019-01-03T09:02:18.681Z,0.80
2019-01-03T09:05:05.738Z,0.80
2019-01-03T09:08:05.604Z,0.80
2019-01-03T09:10:51.548Z,0.90
2019-01-03T09:13:55.066Z,1.00
2019-01-03T09:16:36.474Z,1.00
2019-01-03T09:19:23.272Z,1.10
2019-01-03T09:22:01.958Z,1.20
2019-01-03T09:24:56.188Z,1.30
2019-01-03T09:27:40.330Z,1.30
2019-01-03T09:30:40.763Z,1.40
2019-01-03T09:33:25.882Z,1.50
2019-01-03T09:36:12.846Z,1.50
2019-01-03T09:38:59.929Z,1.60
2019-01-03T09:42:00.002Z,1.60
2019-01-03T09:44:46.714Z,1.60
2019-01-03T09:47:15.816Z,1.70
2019-01-03T09:49:44.932Z,1.70
2019-01-03T09:52:14.042Z,1.80
2019-01-03T09:54:43.162Z,1.80
2019-01-03T09:57:12.341Z,1.80
2019-01-03T09:59:41.470Z,1.80
2019-01-03T10:02:10.946Z,1.90
2019-01-03T10:04:40.038Z,1.90
2019-01-03T10:07:09.148Z,2.00
2019-01-03T10:09:38.240Z,2.00
2019-01-03T10:12:07.528Z,2.00
2019-01-03T10:14:36.580Z,2.10
2019-01-03T10:17:05.856Z,2.10
2019-01-03T10:19:35.036Z,2.10
2019-01-03T10:22:04.338Z,2.20
2019-01-03T10:24:33.520Z,2.20
2019-01-03T10:27:02.708Z,2.20
2019-01-03T10:29:31.924Z,2.30
2019-01-03T10:32:01.064Z,2.30
2019-01-03T10:34:30.192Z,2.30
2019-01-03T10:36:59.309Z,2.40
2019-01-03T10:39:28.438Z,2.40
2019-01-03T10:41:57.600Z,2.40
2019-01-03T10:44:26.778Z,2.40
2019-01-03T10:46:55.898Z,2.40
2019-01-03T10:49:25.029Z,2.50
2019-01-03T10:51:54.136Z,2.50
2019-01-03T10:54:23.340Z,2.60
2019-01-03T10:56:52.467Z,2.60
2019-01-03T10:59:21.576Z,2.60
2019-01-03T11:01:50.622Z,2.70
2019-01-03T11:04:19.731Z,2.70
2019-01-03T11:06:48.848Z,2.80
2019-01-03T11:09:18.004Z,2.80
2019-01-03T11:11:47.114Z,2.90
2019-01-03T11:14:16.308Z,3.40
2019-01-03T11:16:45.418Z,3.00
2019-01-03T11:19:14.502Z,3.10
2019-01-03T11:21:43.616Z,3.20
2019-01-03T11:24:12.716Z,3.20
2019-01-03T11:26:41.825Z,3.30
2019-01-03T11:29:10.995Z,3.30
2019-01-03T11:31:40.099Z,3.30
2019-01-03T11:34:09.216Z,3.40
2019-01-03T11:36:38.299Z,3.40
2019-01-03T11:39:07.974Z,3.40
2019-01-03T11:41:37.056Z,3.40
2019-01-03T11:44:06.179Z,3.40
2019-01-03T11:46:35.280Z,3.40
2019-01-03T11:49:04.358Z,3.40
2019-01-03T11:51:33.468Z,3.50
2019-01-03T11:54:02.750Z,3.50
2019-01-03T11:56:31.872Z,3.60
2019-01-03T11:59:00.959Z,3.60
2019-01-03T12:01:30.055Z,3.60
2019-01-03T12:03:59.174Z,3.60
2019-01-03T12:06:28.280Z,3.60
2019-01-03T12:08:57.360Z,3.60
2019-01-03T12:11:26.389Z,3.60
2019-01-03T12:13:55.495Z,3.70
2019-01-03T12:16:24.607Z,3.70
2019-01-03T12:18:54.010Z,3.70
2019-01-03T12:21:23.203Z,3.70
2019-01-03T12:23:52.287Z,3.80
2019-01-03T12:26:21.404Z,3.80
2019-01-03T12:28:50.578Z,3.80
2019-01-03T12:31:19.671Z,3.80
2019-01-03T12:33:48.766Z,3.80
2019-01-03T12:36:17.865Z,3.80
2019-01-03T12:38:47.029Z,3.80
2019-01-03T12:41:16.130Z,3.80
2019-01-03T12:43:45.252Z,3.70
2019-01-03T12:46:14.326Z,3.70
2019-01-03T12:48:45.592Z,3.80
2019-01-03T12:51:14.347Z,3.80
2019-01-03T12:53:43.451Z,3.80
2019-01-03T12:56:12.565Z,3.80
2019-01-03T12:58:41.648Z,3.80
2019-01-03T13:01:10.755Z,3.90
2019-01-03T13:03:39.887Z,3.90
2019-01-03T13:06:09.060Z,3.90
2019-01-03T13:08:38.198Z,3.90
2019-01-03T13:11:07.306Z,3.90
2019-01-03T13:13:36.386Z,3.90
2019-01-03T13:16:05.494Z,3.90
2019-01-03T13:18:34.659Z,3.80
2019-01-03T13:21:03.758Z,3.80
2019-01-03T13:23:32.847Z,3.80
2019-01-03T13:26:01.948Z,3.80
2019-01-03T13:28:31.123Z,3.80
2019-01-03T13:31:00.238Z,3.80
2019-01-03T13:33:29.374Z,3.80
2019-01-03T13:35:58.534Z,3.80
2019-01-03T13:38:27.730Z,3.90
2019-01-03T13:40:56.815Z,3.80
2019-01-03T13:43:25.941Z,3.80
2019-01-03T13:45:55.125Z,3.90
2019-01-03T13:48:24.231Z,3.90
2019-01-03T13:50:53.333Z,3.90
2019-01-03T13:53:22.501Z,3.90
2019-01-03T13:55:51.665Z,3.90
2019-01-03T13:58:20.781Z,3.80
2019-01-03T14:00:49.912Z,3.80
2019-01-03T14:03:19.001Z,3.70
2019-01-03T14:05:48.188Z,3.80
2019-01-03T14:08:17.353Z,3.80
2019-01-03T14:10:46.468Z,3.80
2019-01-03T14:13:15.577Z,3.70
2019-01-03T14:15:44.694Z,3.70
2019-01-03T14:18:13.937Z,3.70
2019-01-03T14:20:43.057Z,3.70
2019-01-03T14:23:12.265Z,3.70
2019-01-03T14:25:41.365Z,3.70
2019-01-03T14:28:10.502Z,3.70
2019-01-03T14:30:39.682Z,3.70
2019-01-03T14:33:08.797Z,3.70
2019-01-03T14:35:37.887Z,3.80
2019-01-03T14:38:07.011Z,3.70
2019-01-03T14:40:36.102Z,3.80
2019-01-03T14:43:05.198Z,3.80
2019-01-03T14:45:34.293Z,3.80
2019-01-03T14:48:03.435Z,3.70
2019-01-03T14:50:32.549Z,3.70
2019-01-03T14:53:01.644Z,3.70
2019-01-03T14:55:30.759Z,3.70
2019-01-03T14:57:59.765Z,3.70
2019-01-03T15:00:28.887Z,3.70
2019-01-03T15:02:57.993Z,3.70
2019-01-03T15:05:27.145Z,3.60
2019-01-03T15:07:56.325Z,3.60
2019-01-03T15:10:25.418Z,3.50
2019-01-03T15:12:54.539Z,3.50
2019-01-03T15:15:23.691Z,3.50
2019-01-03T15:17:52.807Z,3.50
2019-01-03T15:20:21.899Z,3.50
2019-01-03T15:22:51.032Z,3.40
2019-01-03T15:25:20.209Z,3.40
2019-01-03T15:27:49.333Z,3.40
2019-01-03T15:30:18.431Z,3.40
2019-01-03T15:32:47.571Z,3.40
2019-01-03T15:35:16.775Z,3.40
2019-01-03T15:37:45.939Z,3.30
2019-01-03T15:40:15.060Z,3.30
2019-01-03T15:42:44.181Z,3.30
2019-01-03T15:45:13.311Z,3.20
2019-01-03T15:47:42.411Z,3.20
2019-01-03T15:50:11.552Z,3.20
2019-01-03T15:52:40.648Z,3.20
2019-01-03T15:55:09.723Z,3.20
2019-01-03T15:57:38.827Z,3.30
2019-01-03T16:00:09.915Z,3.30
2019-01-03T16:02:39.097Z,3.20
2019-01-03T16:05:08.417Z,3.20
2019-01-03T16:07:37.546Z,3.20
2019-01-03T16:10:07.463Z,3.20
2019-01-03T16:12:36.566Z,3.20
2019-01-03T16:15:06.046Z,3.10
2019-01-03T16:17:35.122Z,3.10
2019-01-03T16:20:04.427Z,3.10
2019-01-03T16:22:33.532Z,3.10
2019-01-03T16:25:02.625Z,3.10
2019-01-03T16:27:31.733Z,3.10
2019-01-03T16:30:00.846Z,3.10
2019-01-03T16:32:29.927Z,3.00
2019-01-03T16:34:59.115Z,3.00
2019-01-03T16:37:28.228Z,2.90
2019-01-03T16:39:57.330Z,2.80
2019-01-03T16:42:38.800Z,2.80
2019-01-03T16:45:08.467Z,2.80
2019-01-03T16:47:37.663Z,2.80
2019-01-03T16:50:08.153Z,2.80
2019-01-03T16:52:37.262Z,2.90
2019-01-03T16:55:06.420Z,2.90
2019-01-03T16:57:35.537Z,2.90
2019-01-03T17:00:04.939Z,2.90
2019-01-03T17:02:34.026Z,2.80
2019-01-03T17:05:03.205Z,2.70
2019-01-03T17:07:32.322Z,2.70
2019-01-03T17:10:01.532Z,2.60
2019-01-03T17:12:30.716Z,2.50
2019-01-03T17:14:59.863Z,2.50
2019-01-03T17:17:29.085Z,2.50
2019-01-03T17:20:00.504Z,2.50
2019-01-03T17:22:29.917Z,2.50
2019-01-03T17:24:59.098Z,2.50
2019-01-03T17:27:28.302Z,2.60
2019-01-03T17:29:57.490Z,2.50
2019-01-03T17:32:26.721Z,2.50
2019-01-03T17:34:57.025Z,2.50
2019-01-03T17:37:26.220Z,2.60
2019-01-03T17:39:55.388Z,2.60
2019-01-03T17:42:24.602Z,2.50
2019-01-03T17:44:56.024Z,2.60
2019-01-03T17:47:25.217Z,2.50
2019-01-03T17:49:54.430Z,2.50
2019-01-03T17:52:23.610Z,2.50
2019-01-03T17:54:52.843Z,2.50
2019-01-03T17:57:22.055Z,2.50
2019-01-03T17:59:51.188Z,2.50
2019-01-03T18:02:20.423Z,2.50
2019-01-03T18:04:49.686Z,2.50
2019-01-03T18:07:18.880Z,2.50
2019-01-03T18:09:48.109Z,2.50
2019-01-03T18:12:17.311Z,2.50
2019-01-03T18:14:46.423Z,2.50
2019-01-03T18:17:15.634Z,2.50
2019-01-03T18:19:44.868Z,2.50
2019-01-03T18:22:14.001Z,2.50
2019-01-03T18:24:43.316Z,2.40
2019-01-03T18:27:12.492Z,2.40
2019-01-03T18:29:41.662Z,2.50
2019-01-03T18:32:10.877Z,2.40
2019-01-03T18:34:40.124Z,2.40
2019-01-03T18:37:09.380Z,2.40
2019-01-03T18:39:38.688Z,2.40
2019-01-03T18:42:07.980Z,2.50
2019-01-03T18:44:37.311Z,2.50
2019-01-03T18:47:07.840Z,2.50
2019-01-03T18:49:37.142Z,2.50
2019-01-03T18:52:06.750Z,2.50
2019-01-03T18:54:36.871Z,2.60
2019-01-03T18:57:06.192Z,2.60
2019-01-03T18:59:35.515Z,2.60
2019-01-03T19:02:04.776Z,2.70
2019-01-03T19:04:34.974Z,2.60
2019-01-03T19:07:04.309Z,2.70
2019-01-03T19:09:33.543Z,2.70
2019-01-03T19:12:02.805Z,2.70
2019-01-03T19:14:32.296Z,2.60
2019-01-03T19:17:01.627Z,2.60
2019-01-03T19:19:30.912Z,2.70
2019-01-03T19:22:00.149Z,2.70
2019-01-03T19:24:29.412Z,2.70
2019-01-03T19:27:00.397Z,2.70
2019-01-03T19:29:29.768Z,2.70
2019-01-03T19:31:59.182Z,2.70
2019-01-03T19:34:30.178Z,2.70
2019-01-03T19:37:01.514Z,2.70
2019-01-03T19:39:30.822Z,2.70
2019-01-03T19:42:01.782Z,2.80
2019-01-03T19:44:32.681Z,2.80
2019-01-03T19:47:03.023Z,2.70
2019-01-03T19:49:32.382Z,2.80
2019-01-03T19:52:04.343Z,2.80
2019-01-03T19:54:33.689Z,2.80
2019-01-03T19:57:04.550Z,2.80
2019-01-03T19:59:33.876Z,2.80
2019-01-03T20:02:04.898Z,2.90
2019-01-03T20:04:34.189Z,2.90
2019-01-03T20:07:04.891Z,2.90
2019-01-03T20:09:34.971Z,2.90
2019-01-03T20:12:04.948Z,2.80
2019-01-03T20:14:34.631Z,2.80
2019-01-03T20:17:04.656Z,2.90
2019-01-03T20:19:35.706Z,2.80
2019-01-03T20:22:05.829Z,2.80
2019-01-03T20:24:37.637Z,2.70
2019-01-03T20:27:09.287Z,2.80
2019-01-03T20:29:39.445Z,2.70
2019-01-03T20:32:08.854Z,2.80
2019-01-03T20:34:39.871Z,2.80
2019-01-03T20:37:12.060Z,2.80
2019-01-03T20:39:46.123Z,2.80
2019-01-03T20:42:17.291Z,2.80
2019-01-03T20:44:47.029Z,2.80
2019-01-03T20:47:20.976Z,2.80
2019-01-03T20:49:54.029Z,2.80
2019-01-03T20:52:24.010Z,2.80
2019-01-03T20:54:54.230Z,2.80
2019-01-03T20:57:23.637Z,2.80
2019-01-03T20:59:52.967Z,2.80
2019-01-03T21:02:22.385Z,2.80
2019-01-03T21:04:52.406Z,2.80
2019-01-03T21:07:22.448Z,2.80
2019-01-03T21:09:52.916Z,2.80
2019-01-03T21:12:25.850Z,2.80
2019-01-03T21:14:55.542Z,2.80
2019-01-03T21:17:24.956Z,2.80
2019-01-03T21:19:54.293Z,2.80
2019-01-03T21:22:24.254Z,2.90
2019-01-03T21:24:54.563Z,2.90
2019-01-03T21:27:24.773Z,2.90
2019-01-03T21:29:57.448Z,2.90
2019-01-03T21:32:27.194Z,2.90
2019-01-03T21:34:56.681Z,2.90
2019-01-03T21:37:26.651Z,2.90
2019-01-03T21:39:56.442Z,2.90
2019-01-03T21:42:28.914Z,2.90
2019-01-03T21:45:01.106Z,2.90
2019-01-03T21:47:32.674Z,2.90
2019-01-03T21:50:02.388Z,2.80
2019-01-03T21:52:34.221Z,2.90
2019-01-03T21:55:03.836Z,2.90
2019-01-03T21:57:34.167Z,3.00
2019-01-03T22:00:08.661Z,3.00
2019-01-03T22:02:38.860Z,2.90
2019-01-03T22:05:14.121Z,2.90
2019-01-03T22:07:41.605Z,2.90
2019-01-03T22:10:12.066Z,2.80
2019-01-03T22:12:42.373Z,2.80
2019-01-03T22:15:11.682Z,2.80
2019-01-03T22:17:45.343Z,2.80
2019-01-03T22:20:19.293Z,2.80
2019-01-03T22:22:47.606Z,2.80
2019-01-03T22:25:16.952Z,2.80
2019-01-03T22:27:46.610Z,2.80
2019-01-03T22:30:16.041Z,2.80
2019-01-03T22:32:45.346Z,2.80
2019-01-03T22:35:16.899Z,2.90
2019-01-03T22:37:46.265Z,2.80
2019-01-03T22:40:15.643Z,2.80
2019-01-03T22:42:44.947Z,2.80
2019-01-03T22:45:14.346Z,2.80
2019-01-03T22:47:43.641Z,2.80
2019-01-03T22:50:12.907Z,2.80
2019-01-03T22:52:42.443Z,2.80
2019-01-03T22:55:11.705Z,2.80
2019-01-03T22:57:41.066Z,2.80
2019-01-03T23:00:30.624Z,2.70
2019-01-03T23:02:59.893Z,2.70
2019-01-03T23:05:29.610Z,2.60
2019-01-03T23:07:58.783Z,2.60
2019-01-03T23:10:27.991Z,2.60
2019-01-03T23:12:57.675Z,2.50
2019-01-03T23:15:26.900Z,2.40
2019-01-03T23:17:56.136Z,2.30
2019-01-03T23:20:25.376Z,2.30
2019-01-03T23:22:54.573Z,2.20
2019-01-03T23:25:23.724Z,2.10
2019-01-03T23:27:52.878Z,2.10
2019-01-03T23:30:22.039Z,2.00
2019-01-03T23:32:51.161Z,2.00
2019-01-03T23:35:20.305Z,1.90
2019-01-03T23:37:49.408Z,1.90
2019-01-03T23:40:18.630Z,1.90
2019-01-03T23:42:47.842Z,1.90
2019-01-03T23:45:21.365Z,1.90
2019-01-03T23:47:55.181Z,1.90
2019-01-03T23:50:32.456Z,1.80
2019-01-03T23:53:01.625Z,1.80
2019-01-03T23:55:33.063Z,1.80
2019-01-03T23:58:02.213Z,1.80
